Time;durP1;ratioP1;P1;durP2;ratioP2;P2;SDS_P1;SDS_P2;PMS_P1;PMS_P2;Temp;Humidity;BMP_temperature;BMP_pressure;BME280_temperature;BME280_humidity;BME280_pressure;Samples;Min_cycle;Max_cycle;Signal;HPM_P1;HPM_P2
2022/11/01 00:02:00;;;;;;;12.43;11.13;;;10.80;99.90;;;;;;5112537;28;20235;-86
2022/11/01 00:04:29;;;;;;;11.90;10.80;;;10.80;99.90;;;;;;5112881;28;20212;-86
2022/11/01 00:06:57;;;;;;;11.65;10.55;;;10.80;99.90;;;;;;5112427;28;20216;-86
2022/11/01 00:09:26;;;;;;;11.85;10.70;;;10.80;99.90;;;;;;5112535;28;20216;-85
2022/11/01 00:11:55;;;;;;;12.55;10.73;;;10.80;99.90;;;;;;5113047;28;20231;-87
2022/11/01 00:14:24;;;;;;;13.88;12.23;;;10.80;99.90;;;;;;5112869;28;20220;-85
2022/11/01 00:16:52;;;;;;;11.35;10.35;;;10.80;99.90;;;;;;5112240;28;20207;-87
2022/11/01 00:19:20;;;;;;;22.33;11.88;;;10.80;99.90;;;;;;5112089;28;20218;-86
2022/11/01 00:21:49;;;;;;;19.00;12.40;;;10.80;99.90;;;;;;5112531;28;20234;-85
2022/11/01 00:24:17;;;;;;;15.35;12.32;;;10.80;99.90;;;;;;5114466;28;20231;-84
2022/11/01 00:26:46;;;;;;;14.77;11.43;;;10.80;99.90;;;;;;5114173;28;20207;-85
2022/11/01 00:29:15;;;;;;;13.70;11.93;;;10.80;99.90;;;;;;5113562;28;20206;-84
2022/11/01 00:31:44;;;;;;;15.27;13.77;;;10.80;99.90;;;;;;5114145;28;20231;-85
2022/11/01 00:34:12;;;;;;;23.50;13.80;;;10.80;99.90;;;;;;5114589;28;20281;-85
2022/11/01 00:36:40;;;;;;;13.85;11.50;;;10.80;99.90;;;;;;5114683;28;20200;-83
2022/11/01 00:39:12;;;;;;;12.82;11.52;;;10.80;99.90;;;;;;5113774;28;20207;-84
2022/11/01 00:41:40;;;;;;;13.57;12.18;;;10.80;99.90;;;;;;5113610;28;20220;-84
2022/11/01 00:44:09;;;;;;;12.88;11.57;;;10.80;99.90;;;;;;5114341;28;20200;-84
2022/11/01 00:46:38;;;;;;;12.15;11.05;;;10.80;99.90;;;;;;5114343;28;20211;-84
2022/11/01 00:49:07;;;;;;;11.18;9.98;;;10.80;99.90;;;;;;5113528;28;20207;-84
2022/11/01 00:51:35;;;;;;;14.82;10.43;;;10.80;99.90;;;;;;5113956;28;20225;-84
2022/11/01 00:54:04;;;;;;;10.23;9.18;;;10.80;99.90;;;;;;5113934;28;20219;-86
2022/11/01 00:56:32;;;;;;;11.18;10.07;;;10.80;99.90;;;;;;5113878;28;20219;-85
2022/11/01 00:59:00;;;;;;;11.70;10.52;;;10.80;99.90;;;;;;5113574;28;20206;-85
2022/11/01 01:01:30;;;;;;;13.02;10.13;;;10.80;99.90;;;;;;5113700;28;20235;-84
2022/11/01 01:04:01;;;;;;;12.20;11.05;;;10.80;99.90;;;;;;5114090;28;20200;-84
2022/11/01 01:06:29;;;;;;;10.85;9.77;;;10.70;99.90;;;;;;5113874;28;20211;-84
2022/11/01 01:08:59;;;;;;;13.68;10.45;;;10.70;99.90;;;;;;5113220;28;20204;-84
2022/11/01 01:11:28;;;;;;;10.23;9.20;;;10.70;99.90;;;;;;5113418;28;20220;-84
2022/11/01 01:13:56;;;;;;;10.30;9.32;;;10.70;99.90;;;;;;5113633;28;20211;-86
2022/11/01 01:16:24;;;;;;;11.90;10.68;;;10.80;99.90;;;;;;5113646;28;20234;-84
2022/11/01 01:18:52;;;;;;;10.43;9.52;;;10.80;99.90;;;;;;5112874;28;20200;-83
2022/11/01 01:21:22;;;;;;;10.48;9.43;;;10.80;99.90;;;;;;5112923;28;20230;-85
2022/11/01 01:23:53;;;;;;;9.85;8.95;;;10.80;99.90;;;;;;5113472;28;20215;-86
2022/11/01 01:26:21;;;;;;;10.75;9.65;;;10.70;99.90;;;;;;5113427;28;20208;-85
2022/11/01 01:28:53;;;;;;;10.13;9.18;;;10.80;99.90;;;;;;5113160;28;20206;-84
2022/11/01 01:31:21;;;;;;;10.23;9.23;;;10.80;99.90;;;;;;5112970;28;20238;-85
2022/11/01 01:33:51;;;;;;;10.98;9.05;;;10.80;99.90;;;;;;5113141;28;20199;-85
2022/11/01 01:36:19;;;;;;;11.07;9.90;;;10.80;99.90;;;;;;5112712;28;20208;-86
2022/11/01 01:38:52;;;;;;;9.32;8.52;;;10.80;99.90;;;;;;5112714;28;20199;-85
2022/11/01 01:44:39;;;;;;;10.65;9.55;;;10.80;99.90;;;;;;5113030;28;20203;-85
2022/11/01 01:47:11;;;;;;;8.80;8.10;;;10.80;99.90;;;;;;5113263;28;20214;-86
2022/11/01 01:49:39;;;;;;;9.73;8.88;;;10.80;99.90;;;;;;5112778;28;20215;-85
2022/11/01 01:52:13;;;;;;;10.75;8.90;;;10.80;99.90;;;;;;5113073;28;20227;-85
2022/11/01 01:54:43;;;;;;;8.65;7.90;;;10.70;99.90;;;;;;5113227;28;20207;-85
2022/11/01 01:57:11;;;;;;;10.00;9.15;;;10.70;99.90;;;;;;5113435;28;20208;-85
2022/11/01 01:59:41;;;;;;;12.45;8.35;;;10.70;99.90;;;;;;5112375;28;20199;-85
2022/11/01 02:02:10;;;;;;;9.50;8.70;;;10.70;99.90;;;;;;5112769;28;20250;-85
2022/11/01 02:04:44;;;;;;;8.68;7.88;;;10.70;99.90;;;;;;5112998;28;20216;-85
2022/11/01 02:07:13;;;;;;;12.40;8.65;;;10.70;99.90;;;;;;5112837;28;20200;-85
2022/11/01 02:09:44;;;;;;;10.45;9.38;;;10.80;99.90;;;;;;5112239;28;20219;-85
2022/11/01 02:12:13;;;;;;;9.23;8.25;;;10.80;99.90;;;;;;5112721;28;20196;-84
2022/11/01 02:14:43;;;;;;;9.70;8.80;;;10.70;99.90;;;;;;5113039;28;20204;-83
2022/11/01 02:17:19;;;;;;;10.18;9.18;;;10.70;99.90;;;;;;5112982;28;20200;-86
2022/11/01 02:20:13;;;;;;;9.45;8.50;;;10.70;99.90;;;;;;5112523;28;20204;-83
2022/11/01 02:23:03;;;;;;;11.73;8.60;;;10.70;99.90;;;;;;5112672;28;20223;-84
2022/11/01 02:25:53;;;;;;;9.30;8.35;;;10.80;99.90;;;;;;5112786;28;20212;-84
2022/11/01 02:28:40;;;;;;;8.75;7.95;;;10.70;99.90;;;;;;5112720;28;20215;-84
2022/11/01 02:31:23;;;;;;;8.50;7.70;;;10.80;99.90;;;;;;5112958;28;20228;-84
2022/11/01 02:33:57;;;;;;;9.82;8.82;;;10.70;99.90;;;;;;5112880;28;20199;-84
2022/11/01 02:36:34;;;;;;;9.38;8.38;;;10.70;99.90;;;;;;5112600;28;20199;-84
2022/11/01 02:39:09;;;;;;;8.65;7.85;;;10.70;99.90;;;;;;5112141;28;20299;-84
2022/11/01 02:41:45;;;;;;;8.93;8.10;;;10.70;99.90;;;;;;5112443;28;20219;-84
2022/11/01 02:44:18;;;;;;;8.82;8.02;;;10.70;99.90;;;;;;5113221;28;20198;-84
2022/11/01 02:47:03;;;;;;;12.52;8.65;;;10.70;99.90;;;;;;5114315;28;20206;-84
2022/11/01 02:49:37;;;;;;;17.33;8.48;;;10.80;99.90;;;;;;5116067;28;20203;-85
2022/11/01 02:52:08;;;;;;;9.45;8.57;;;10.80;99.90;;;;;;5116475;28;20200;-84
2022/11/01 02:54:39;;;;;;;10.25;9.25;;;10.80;99.90;;;;;;5116884;28;20257;-84
2022/11/01 02:57:26;;;;;;;8.95;8.00;;;10.80;99.90;;;;;;5116412;28;20203;-84
2022/11/01 03:00:02;;;;;;;19.58;9.02;;;10.80;99.90;;;;;;5115981;28;20204;-84
2022/11/01 03:02:39;;;;;;;9.82;8.52;;;10.80;99.90;;;;;;5115674;28;20306;-84
2022/11/01 03:05:14;;;;;;;9.20;8.18;;;10.80;99.90;;;;;;5116080;28;20203;-84
2022/11/01 03:07:48;;;;;;;8.88;7.97;;;10.80;99.90;;;;;;5115944;28;20207;-84
2022/11/01 03:10:19;;;;;;;9.10;8.30;;;10.80;99.90;;;;;;5115486;28;20227;-84
2022/11/01 03:12:58;;;;;;;9.82;8.20;;;10.80;99.90;;;;;;5115803;28;20200;-85
2022/11/01 03:15:32;;;;;;;9.60;8.70;;;10.80;99.90;;;;;;5115845;28;20291;-85
2022/11/01 03:18:04;;;;;;;10.18;9.18;;;10.80;99.90;;;;;;5115657;28;20206;-84
2022/11/01 03:20:47;;;;;;;10.50;9.05;;;10.80;99.90;;;;;;5115252;28;20230;-86
2022/11/01 03:23:17;;;;;;;10.52;9.43;;;10.80;99.90;;;;;;5115517;27;20223;-84
2022/11/01 03:25:50;;;;;;;9.50;8.57;;;10.80;99.90;;;;;;5116331;28;20291;-84
2022/11/01 03:28:23;;;;;;;9.70;8.40;;;10.80;99.90;;;;;;5115286;28;20211;-84
2022/11/01 03:30:56;;;;;;;8.52;7.80;;;10.80;99.90;;;;;;5115305;28;20228;-84
2022/11/01 03:33:26;;;;;;;10.75;8.18;;;10.80;99.90;;;;;;5115629;28;20203;-85
2022/11/01 03:36:02;;;;;;;10.02;9.07;;;10.80;99.90;;;;;;5115615;28;20203;-85
2022/11/01 03:38:35;;;;;;;8.70;7.90;;;10.80;99.90;;;;;;5115074;28;20207;-85
2022/11/01 03:41:07;;;;;;;8.82;7.97;;;10.80;99.90;;;;;;5115275;28;20235;-85
2022/11/01 03:43:36;;;;;;;9.88;8.98;;;10.80;99.90;;;;;;5114920;28;20223;-85
2022/11/01 03:46:05;;;;;;;8.52;7.82;;;10.80;99.90;;;;;;5115257;28;20208;-85
2022/11/01 03:48:33;;;;;;;8.75;8.02;;;10.80;99.90;;;;;;5114650;28;20199;-84
2022/11/01 03:51:03;;;;;;;8.55;7.85;;;10.80;99.90;;;;;;5115341;28;20224;-84
2022/11/01 03:53:32;;;;;;;9.90;8.95;;;10.80;99.90;;;;;;5115656;28;20216;-84
2022/11/01 03:56:00;;;;;;;9.23;8.32;;;10.80;99.90;;;;;;5115615;28;20218;-84
2022/11/01 03:58:40;;;;;;;10.07;9.15;;;10.80;99.90;;;;;;5113861;28;20210;-84
2022/11/01 04:01:09;;;;;;;10.73;9.60;;;10.80;99.90;;;;;;5114936;28;20236;-84
2022/11/01 04:03:39;;;;;;;8.85;8.15;;;10.80;99.90;;;;;;5114706;28;20224;-85
2022/11/01 04:06:09;;;;;;;10.05;8.95;;;10.70;99.90;;;;;;5115325;28;20208;-85
2022/11/01 04:08:37;;;;;;;9.20;8.38;;;10.70;99.90;;;;;;5114626;28;20207;-85
2022/11/01 04:11:06;;;;;;;9.20;8.18;;;10.80;99.90;;;;;;5114670;28;20224;-84
2022/11/01 04:13:34;;;;;;;8.57;7.88;;;10.70;99.90;;;;;;5114396;28;20246;-85
2022/11/01 04:21:37;;;;;;;10.15;9.15;;;10.80;99.90;;;;;;5088422;28;20228;-85
2022/11/01 04:24:07;;;;;;;9.73;8.77;;;10.80;99.90;;;;;;5114285;28;20216;-85
2022/11/01 04:26:36;;;;;;;11.38;9.02;;;10.80;99.90;;;;;;5114151;28;20211;-84
2022/11/01 04:29:04;;;;;;;13.75;8.80;;;10.80;99.90;;;;;;5114146;28;20207;-84
2022/11/01 04:31:34;;;;;;;9.75;8.85;;;10.80;99.90;;;;;;5114184;28;20235;-85
2022/11/01 04:34:05;;;;;;;9.45;8.02;;;10.80;99.90;;;;;;5114274;28;20195;-84
2022/11/01 04:36:33;;;;;;;9.50;8.13;;;10.80;99.90;;;;;;5114305;28;20204;-84
2022/11/01 04:39:03;;;;;;;8.90;8.07;;;10.70;99.90;;;;;;5113981;28;20203;-84
2022/11/01 04:41:31;;;;;;;10.25;9.23;;;10.80;99.90;;;;;;5113909;28;20224;-85
2022/11/01 04:44:00;;;;;;;10.32;8.52;;;10.80;99.90;;;;;;5113745;28;20220;-84
2022/11/01 04:46:30;;;;;;;9.57;8.73;;;10.80;99.90;;;;;;5114186;28;20207;-84
2022/11/01 04:48:58;;;;;;;9.68;8.77;;;10.80;99.90;;;;;;5113714;28;20374;-84
2022/11/01 04:51:27;;;;;;;8.77;7.97;;;10.80;99.90;;;;;;5113961;28;20230;-84
2022/11/01 04:53:56;;;;;;;9.57;8.55;;;10.80;99.90;;;;;;5113706;28;20207;-84
2022/11/01 04:56:25;;;;;;;8.77;7.97;;;10.80;99.90;;;;;;5113954;28;20207;-84
2022/11/01 04:58:54;;;;;;;16.50;7.95;;;10.80;99.90;;;;;;5113355;28;20214;-84
2022/11/01 05:01:22;;;;;;;10.23;9.23;;;10.80;99.90;;;;;;5113459;28;20223;-85
2022/11/01 05:03:50;;;;;;;12.43;9.07;;;10.80;99.90;;;;;;5114035;28;20219;-84
2022/11/01 05:06:18;;;;;;;13.70;8.88;;;10.80;99.90;;;;;;5114133;28;20207;-85
2022/11/01 05:08:47;;;;;;;9.43;8.45;;;10.80;99.90;;;;;;5113553;28;20206;-84
2022/11/01 05:11:15;;;;;;;9.48;8.18;;;10.80;99.90;;;;;;5112580;28;20223;-85
2022/11/01 05:13:45;;;;;;;8.00;7.30;;;10.80;99.90;;;;;;5113536;28;20200;-85
2022/11/01 05:16:13;;;;;;;9.02;8.13;;;10.90;99.90;;;;;;5113353;28;20214;-84
2022/11/01 05:18:46;;;;;;;10.40;9.27;;;10.90;99.90;;;;;;5112967;28;20204;-84
2022/11/01 05:21:15;;;;;;;9.23;8.40;;;10.90;99.90;;;;;;5113645;27;20227;-86
2022/11/01 05:23:43;;;;;;;9.20;8.30;;;10.80;99.90;;;;;;5113672;28;20311;-84
2022/11/01 05:26:11;;;;;;;13.27;11.63;;;10.80;99.90;;;;;;5113364;28;20203;-84
2022/11/01 05:28:40;;;;;;;9.50;8.00;;;10.80;99.90;;;;;;5113061;28;20220;-85
2022/11/01 05:31:10;;;;;;;9.25;8.35;;;10.90;99.90;;;;;;5113290;28;20243;-84
2022/11/01 05:33:39;;;;;;;8.95;8.15;;;10.80;99.90;;;;;;5113563;28;20196;-84
2022/11/01 05:36:08;;;;;;;9.77;8.85;;;10.90;99.90;;;;;;5113726;28;20204;-85
2022/11/01 05:38:36;;;;;;;9.77;8.77;;;10.90;99.90;;;;;;5112824;28;20203;-85
2022/11/01 05:41:05;;;;;;;10.02;9.07;;;10.90;99.90;;;;;;5113041;28;20258;-85
2022/11/01 05:43:33;;;;;;;10.65;9.50;;;10.90;99.90;;;;;;5112569;28;20222;-84
2022/11/01 05:46:04;;;;;;;10.30;8.93;;;10.80;99.90;;;;;;5112919;28;20212;-84
2022/11/01 05:48:34;;;;;;;13.68;9.18;;;10.80;99.90;;;;;;5112878;28;20204;-85
2022/11/01 05:51:03;;;;;;;9.93;9.02;;;10.90;99.90;;;;;;5113181;28;20220;-84
2022/11/01 05:53:31;;;;;;;10.40;9.35;;;10.80;99.90;;;;;;5113115;28;20192;-84
2022/11/01 05:56:00;;;;;;;11.98;10.75;;;10.90;99.90;;;;;;5113063;28;20294;-84
2022/11/01 05:58:29;;;;;;;11.48;10.25;;;10.80;99.90;;;;;;5112443;28;20204;-85
2022/11/01 06:00:58;;;;;;;10.65;9.55;;;10.80;99.90;;;;;;5113272;28;20220;-84
2022/11/01 06:03:27;;;;;;;12.77;10.25;;;10.80;99.90;;;;;;5112864;28;20222;-85
2022/11/01 06:05:56;;;;;;;11.48;9.65;;;10.90;99.90;;;;;;5113004;28;20203;-85
2022/11/01 06:08:25;;;;;;;11.63;10.35;;;10.90;99.90;;;;;;5112468;28;20196;-85
2022/11/01 06:11:01;;;;;;;12.10;10.80;;;10.90;99.90;;;;;;5113302;28;20230;-85
2022/11/01 06:13:30;;;;;;;12.05;10.85;;;10.90;99.90;;;;;;5112845;28;20202;-84
2022/11/01 06:15:59;;;;;;;11.45;10.35;;;10.90;99.90;;;;;;5112756;28;20201;-85
2022/11/01 06:18:27;;;;;;;12.25;10.77;;;10.90;99.90;;;;;;5112816;28;20210;-85
2022/11/01 06:21:00;;;;;;;11.35;10.35;;;10.90;99.90;;;;;;5112929;28;20227;-86
2022/11/01 06:23:28;;;;;;;12.48;10.98;;;10.90;99.90;;;;;;5116956;28;20227;-85
2022/11/01 06:26:01;;;;;;;10.63;9.73;;;11.00;99.90;;;;;;5117179;28;20199;-84
2022/11/01 06:28:29;;;;;;;11.32;10.23;;;10.90;99.90;;;;;;5116610;28;20204;-85
2022/11/01 06:31:00;;;;;;;12.07;10.70;;;11.00;99.90;;;;;;5116556;28;20261;-85
2022/11/01 06:33:29;;;;;;;12.80;10.00;;;11.00;99.90;;;;;;5117342;28;20196;-85
2022/11/01 06:36:01;;;;;;;11.93;10.77;;;11.00;99.90;;;;;;5116577;28;20261;-85
2022/11/01 06:38:29;;;;;;;12.35;11.15;;;11.00;99.90;;;;;;5116217;28;20206;-85
2022/11/01 06:40:58;;;;;;;13.13;11.73;;;11.00;99.90;;;;;;5116760;28;20231;-86
2022/11/01 06:43:26;;;;;;;13.25;10.63;;;11.00;99.90;;;;;;5116167;28;20233;-85
2022/11/01 06:45:54;;;;;;;12.93;11.57;;;11.10;99.90;;;;;;5116447;28;20207;-85
2022/11/01 06:48:23;;;;;;;15.75;12.00;;;11.00;99.90;;;;;;5115791;28;20289;-85
2022/11/01 06:50:52;;;;;;;16.98;11.93;;;11.00;99.90;;;;;;5116135;28;20231;-85
2022/11/01 06:53:23;;;;;;;15.52;11.05;;;11.00;99.90;;;;;;5116159;28;20197;-85
2022/11/01 06:55:51;;;;;;;11.18;10.13;;;11.00;99.90;;;;;;5116468;28;20287;-84
2022/11/01 06:58:20;;;;;;;12.00;10.80;;;11.00;99.90;;;;;;5116102;28;20204;-84
2022/11/01 07:00:48;;;;;;;11.70;10.57;;;11.00;99.90;;;;;;5115933;28;20224;-84
2022/11/01 07:03:16;;;;;;;11.38;10.27;;;11.00;99.90;;;;;;5116050;28;20200;-85
2022/11/01 07:05:47;;;;;;;11.57;10.48;;;11.00;99.90;;;;;;5116092;28;20204;-84
2022/11/01 07:08:15;;;;;;;12.40;11.10;;;11.00;99.90;;;;;;5116033;28;20200;-84
2022/11/01 07:10:45;;;;;;;12.52;11.38;;;11.00;99.90;;;;;;5115481;28;20220;-84
2022/11/01 07:13:14;;;;;;;12.15;10.95;;;11.00;99.90;;;;;;5115640;28;20207;-85
2022/11/01 07:15:42;;;;;;;13.48;10.95;;;11.10;99.90;;;;;;5116169;28;20222;-84
2022/11/01 07:18:11;;;;;;;12.63;11.00;;;11.10;99.90;;;;;;5116093;28;20211;-84
2022/11/01 07:20:49;;;;;;;13.50;10.88;;;11.10;99.90;;;;;;5115076;28;20235;-84
2022/11/01 07:23:17;;;;;;;12.38;11.07;;;11.10;99.90;;;;;;5115811;28;20203;-85
2022/11/01 07:25:51;;;;;;;14.25;10.60;;;11.10;99.90;;;;;;5115812;28;20210;-85
2022/11/01 07:28:20;;;;;;;10.95;10.05;;;11.10;99.90;;;;;;5115678;28;20213;-85
2022/11/01 07:30:48;;;;;;;10.93;9.98;;;11.10;99.90;;;;;;5115259;28;20240;-84
2022/11/01 07:33:16;;;;;;;12.15;10.95;;;11.10;99.90;;;;;;5114655;28;20203;-86
2022/11/01 07:35:45;;;;;;;11.85;10.63;;;11.20;99.90;;;;;;5115537;28;20279;-85
2022/11/01 07:38:13;;;;;;;12.00;10.75;;;11.20;99.90;;;;;;5115371;28;20215;-85
2022/11/01 07:40:43;;;;;;;11.18;10.23;;;11.20;99.90;;;;;;5114779;28;20223;-85
2022/11/01 07:43:13;;;;;;;12.20;10.95;;;11.20;99.90;;;;;;5115445;28;20203;-85
2022/11/01 07:45:41;;;;;;;12.85;11.45;;;11.20;99.90;;;;;;5115230;28;20234;-85
2022/11/01 07:48:12;;;;;;;13.30;10.98;;;11.20;99.90;;;;;;5115215;28;20206;-85
2022/11/01 07:50:42;;;;;;;14.25;12.25;;;11.20;99.90;;;;;;5114668;28;20231;-85
2022/11/01 07:53:12;;;;;;;14.60;13.07;;;11.20;99.90;;;;;;5115184;28;20210;-85
2022/11/01 07:55:40;;;;;;;10.98;9.90;;;11.20;99.90;;;;;;5115642;28;20203;-85
2022/11/01 07:58:10;;;;;;;11.68;10.25;;;11.30;99.90;;;;;;5115302;28;20231;-85
2022/11/01 08:00:40;;;;;;;12.00;10.68;;;11.30;99.90;;;;;;5114503;28;20228;-85
2022/11/01 08:03:11;;;;;;;12.02;10.32;;;11.30;99.90;;;;;;5115759;28;20214;-85
2022/11/01 08:05:40;;;;;;;13.93;12.43;;;11.30;99.90;;;;;;5115020;28;20223;-85
2022/11/01 08:08:08;;;;;;;14.13;12.43;;;11.30;99.90;;;;;;5114991;28;20199;-86
2022/11/01 08:10:37;;;;;;;12.00;10.70;;;11.30;99.90;;;;;;5114472;28;20246;-85
2022/11/01 08:13:13;;;;;;;13.15;11.70;;;11.40;99.90;;;;;;5114750;28;20200;-85
2022/11/01 08:15:43;;;;;;;13.60;11.98;;;11.40;99.90;;;;;;5114712;28;20199;-85
2022/11/01 08:18:12;;;;;;;12.00;10.93;;;11.30;99.90;;;;;;5112404;28;20211;-85
2022/11/01 08:20:40;;;;;;;13.68;11.35;;;11.30;99.90;;;;;;5112656;28;20227;-85
2022/11/01 08:23:09;;;;;;;13.38;11.25;;;11.30;99.90;;;;;;5113087;28;20290;-85
2022/11/01 08:25:38;;;;;;;12.40;10.55;;;11.30;99.90;;;;;;5112428;28;20230;-85
2022/11/01 08:28:09;;;;;;;16.60;11.50;;;11.30;99.90;;;;;;5111652;28;20222;-85
2022/11/01 08:30:39;;;;;;;10.30;9.40;;;11.40;99.90;;;;;;5111434;28;20243;-85
2022/11/01 08:33:09;;;;;;;12.02;10.85;;;11.40;99.90;;;;;;5112135;28;20234;-85
2022/11/01 08:35:37;;;;;;;11.57;10.43;;;11.40;99.90;;;;;;5112244;28;20215;-85
2022/11/01 08:38:06;;;;;;;11.65;10.40;;;11.40;99.90;;;;;;5111787;28;20207;-85
2022/11/01 08:40:34;;;;;;;13.05;11.60;;;11.40;99.90;;;;;;5111446;28;20228;-85
2022/11/01 08:43:03;;;;;;;15.13;12.02;;;11.40;99.90;;;;;;5111379;28;20211;-85
2022/11/01 08:45:32;;;;;;;12.38;11.27;;;11.40;99.90;;;;;;5111901;28;20232;-85
2022/11/01 08:48:02;;;;;;;20.50;13.63;;;11.40;99.90;;;;;;5111837;28;20207;-85
2022/11/01 08:50:33;;;;;;;12.65;11.30;;;11.50;99.90;;;;;;5111257;28;20227;-86
2022/11/01 08:53:04;;;;;;;11.77;10.50;;;11.50;99.90;;;;;;5111879;28;20234;-86
2022/11/01 08:55:33;;;;;;;12.07;10.93;;;11.40;99.90;;;;;;5111640;28;20211;-86
2022/11/01 08:58:06;;;;;;;12.70;10.75;;;11.40;99.90;;;;;;5111815;28;20227;-85
2022/11/01 09:00:34;;;;;;;11.95;10.73;;;11.40;99.90;;;;;;5110999;28;20223;-86
2022/11/01 09:03:02;;;;;;;12.40;10.27;;;11.40;99.90;;;;;;5111522;28;20211;-85
2022/11/01 09:05:35;;;;;;;11.30;10.10;;;11.40;99.90;;;;;;5111111;28;20230;-85
2022/11/01 09:08:04;;;;;;;12.27;10.98;;;11.40;99.90;;;;;;5110834;28;20200;-84
2022/11/01 09:10:33;;;;;;;11.70;10.57;;;11.40;99.90;;;;;;5111184;28;20227;-85
2022/11/01 09:13:01;;;;;;;12.25;10.95;;;11.40;99.90;;;;;;5111469;28;20216;-85
2022/11/01 09:15:30;;;;;;;13.00;10.68;;;11.40;99.90;;;;;;5111073;28;20211;-85
2022/11/01 09:17:58;;;;;;;12.40;11.13;;;11.40;99.90;;;;;;5111526;28;20215;-85
2022/11/01 09:20:27;;;;;;;11.27;9.95;;;11.40;99.90;;;;;;5110702;28;20219;-86
2022/11/01 09:22:57;;;;;;;12.00;9.52;;;11.40;99.90;;;;;;5111579;28;20288;-86
2022/11/01 09:25:25;;;;;;;13.13;10.73;;;11.40;99.90;;;;;;5111055;28;20230;-86
2022/11/01 09:27:56;;;;;;;9.80;8.77;;;11.40;99.90;;;;;;5110799;28;20214;-86
2022/11/01 09:30:24;;;;;;;12.70;10.10;;;11.50;99.90;;;;;;5110565;28;20232;-86
2022/11/01 09:32:52;;;;;;;10.75;9.20;;;11.50;99.90;;;;;;5110912;28;20200;-86
2022/11/01 09:35:21;;;;;;;12.20;9.98;;;11.50;99.90;;;;;;5111221;28;20206;-86
2022/11/01 09:37:49;;;;;;;11.05;9.95;;;11.60;99.90;;;;;;5111077;28;20200;-86
2022/11/01 09:40:19;;;;;;;11.23;10.07;;;11.70;99.90;;;;;;5110457;28;20227;-86
2022/11/01 09:42:47;;;;;;;12.20;9.98;;;11.70;99.90;;;;;;5110926;28;20207;-86
2022/11/01 09:45:18;;;;;;;17.65;9.75;;;11.70;99.90;;;;;;5110338;28;20230;-84
2022/11/01 09:47:49;;;;;;;16.75;9.77;;;11.70;99.90;;;;;;5110876;28;20207;-85
2022/11/01 09:50:22;;;;;;;12.38;10.20;;;11.70;99.90;;;;;;5110165;28;20220;-85
2022/11/01 09:52:52;;;;;;;12.13;10.80;;;11.70;99.90;;;;;;5111526;28;20212;-87
2022/11/01 09:55:27;;;;;;;12.20;10.20;;;11.70;99.90;;;;;;5110472;28;20207;-85
2022/11/01 09:58:01;;;;;;;12.40;11.15;;;11.70;99.90;;;;;;5110378;28;20204;-85
2022/11/01 10:00:34;;;;;;;11.88;9.07;;;11.70;99.90;;;;;;5110382;28;20227;-86
2022/11/01 10:03:23;;;;;;;11.25;10.18;;;11.80;99.90;;;;;;5111212;28;20211;-85
2022/11/01 10:05:58;;;;;;;11.73;10.52;;;11.80;99.90;;;;;;5110831;28;20229;-85
2022/11/01 10:08:50;;;;;;;11.52;10.35;;;11.80;99.90;;;;;;5110149;28;20203;-85
2022/11/01 10:11:53;;;;;;;9.20;8.30;;;11.90;99.90;;;;;;5110550;28;20232;-86
2022/11/01 10:14:44;;;;;;;9.93;8.60;;;11.90;99.90;;;;;;5106267;28;20219;-86
2022/11/01 10:17:14;;;;;;;9.07;8.18;;;11.90;99.90;;;;;;5112856;28;20207;-86
2022/11/01 10:19:46;;;;;;;10.38;9.32;;;12.00;99.90;;;;;;5112562;28;20202;-85
2022/11/01 10:22:18;;;;;;;10.65;9.60;;;11.90;99.90;;;;;;5112890;28;20208;-86
2022/11/01 10:24:52;;;;;;;10.30;9.30;;;12.00;99.90;;;;;;5112892;28;20305;-86
2022/11/01 10:27:28;;;;;;;9.18;8.32;;;12.00;99.90;;;;;;5112720;28;20233;-86
2022/11/01 10:30:07;;;;;;;10.43;9.10;;;12.00;99.90;;;;;;5112491;28;20261;-85
2022/11/01 10:32:40;;;;;;;9.57;8.77;;;12.00;99.90;;;;;;5113040;28;20204;-85
2022/11/01 10:35:15;;;;;;;9.63;8.75;;;12.00;99.90;;;;;;5112345;28;20199;-85
2022/11/01 10:37:49;;;;;;;9.75;8.90;;;12.10;99.90;;;;;;5112920;28;20210;-86
2022/11/01 10:40:43;;;;;;;15.77;11.43;;;12.10;99.90;;;;;;5112006;28;20228;-86
2022/11/01 10:43:17;;;;;;;10.43;9.35;;;12.20;99.90;;;;;;5113134;28;20207;-86
2022/11/01 10:45:48;;;;;;;10.07;9.18;;;12.20;99.90;;;;;;5112490;28;20219;-86
2022/11/01 10:48:28;;;;;;;11.00;10.00;;;12.30;99.90;;;;;;5112867;28;20207;-86
2022/11/01 10:51:02;;;;;;;10.00;9.05;;;12.30;99.90;;;;;;5112665;28;20233;-86
2022/11/01 10:53:35;;;;;;;11.50;9.95;;;12.50;99.90;;;;;;5112699;28;20262;-86
2022/11/01 10:56:08;;;;;;;12.30;9.40;;;12.50;99.90;;;;;;5112454;28;20203;-85
2022/11/01 10:58:41;;;;;;;10.65;9.75;;;12.70;99.90;;;;;;5112268;28;20218;-85
2022/11/01 11:01:14;;;;;;;10.65;9.57;;;12.70;99.90;;;;;;5112459;28;20223;-85
2022/11/01 11:03:45;;;;;;;9.43;8.45;;;12.90;99.90;;;;;;5112630;28;20203;-86
2022/11/01 11:06:15;;;;;;;10.77;9.77;;;13.00;99.90;;;;;;5114980;28;20230;-86
2022/11/01 11:08:49;;;;;;;8.82;8.07;;;13.10;99.90;;;;;;5112777;28;20200;-86
2022/11/01 11:11:18;;;;;;;10.07;9.18;;;13.20;99.90;;;;;;5116604;28;20223;-85
2022/11/01 11:13:53;;;;;;;14.73;8.32;;;13.50;99.90;;;;;;5116347;28;20233;-85
2022/11/01 11:16:29;;;;;;;7.07;6.53;;;13.70;99.90;;;;;;5115795;28;20200;-85
2022/11/01 11:19:14;;;;;;;15.48;8.75;;;13.90;99.90;;;;;;5115743;28;20210;-86
2022/11/01 11:21:46;;;;;;;9.10;8.25;;;14.30;99.90;;;;;;5116077;28;20234;-86
2022/11/01 11:24:20;;;;;;;9.30;8.00;;;14.60;99.90;;;;;;5116066;28;20203;-86
2022/11/01 11:26:51;;;;;;;11.07;7.90;;;14.80;99.90;;;;;;5115681;28;20226;-86
2022/11/01 11:29:47;;;;;;;9.05;7.32;;;14.90;99.90;;;;;;5115120;28;20208;-86
2022/11/01 11:32:18;;;;;;;8.38;7.60;;;14.90;99.90;;;;;;5116001;28;20204;-87
2022/11/01 11:34:53;;;;;;;8.20;7.40;;;15.00;99.90;;;;;;5115894;28;20210;-87
2022/11/01 11:37:23;;;;;;;7.80;6.95;;;15.30;99.90;;;;;;5115979;28;20199;-87
2022/11/01 11:40:14;;;;;;;7.15;6.53;;;15.70;99.90;;;;;;5115186;28;20204;-87
2022/11/01 11:42:43;;;;;;;6.03;5.53;;;16.20;99.90;;;;;;5115343;28;20203;-87
2022/11/01 11:45:19;;;;;;;7.65;6.93;;;16.80;99.90;;;;;;5115250;28;20200;-87
2022/11/01 11:47:48;;;;;;;6.53;5.85;;;17.20;99.90;;;;;;5115150;28;20223;-87
2022/11/01 11:50:31;;;;;;;6.60;5.55;;;17.50;99.90;;;;;;5115031;28;20215;-87
2022/11/01 11:53:03;;;;;;;6.07;5.57;;;17.40;99.90;;;;;;5115330;28;20199;-87
2022/11/01 11:55:38;;;;;;;6.82;6.15;;;17.40;99.90;;;;;;5115260;28;20211;-86
2022/11/01 11:58:20;;;;;;;8.50;7.60;;;17.40;99.90;;;;;;5115517;28;20210;-87
2022/11/01 12:00:52;;;;;;;6.88;6.18;;;17.00;99.90;;;;;;5114844;28;20220;-87
2022/11/01 12:03:22;;;;;;;12.57;11.48;;;16.90;99.90;;;;;;5115577;28;20231;-87
2022/11/01 12:05:56;;;;;;;7.70;7.00;;;17.10;99.90;;;;;;5115434;28;20210;-86
2022/11/01 12:08:35;;;;;;;5.95;5.40;;;17.20;99.90;;;;;;5114563;28;20216;-87
2022/11/01 12:11:05;;;;;;;9.48;6.47;;;17.40;99.90;;;;;;5114649;28;20226;-87
2022/11/01 12:13:36;;;;;;;6.60;5.47;;;17.60;99.90;;;;;;5114798;28;20318;-87
2022/11/01 12:16:24;;;;;;;5.35;4.93;;;17.70;99.90;;;;;;5114980;28;20210;-87
2022/11/01 12:18:55;;;;;;;5.90;4.97;;;17.80;99.90;;;;;;5114513;28;20211;-88
2022/11/01 12:21:27;;;;;;;4.75;4.30;;;17.90;99.90;;;;;;5114709;28;20235;-87
2022/11/01 12:24:00;;;;;;;4.90;4.38;;;18.00;99.90;;;;;;5114688;28;20211;-87
2022/11/01 12:26:33;;;;;;;6.05;4.75;;;17.80;99.90;;;;;;5114557;28;20223;-88
2022/11/01 12:29:15;;;;;;;4.72;4.15;;;17.80;99.90;;;;;;5114307;28;20210;-87
2022/11/01 12:31:47;;;;;;;5.25;4.55;;;17.90;99.90;;;;;;5114684;28;20250;-88
2022/11/01 12:34:21;;;;;;;5.28;4.78;;;18.20;99.90;;;;;;5114313;28;20210;-88
2022/11/01 12:36:56;;;;;;;4.80;4.32;;;18.40;99.90;;;;;;5114936;28;20212;-88
2022/11/01 12:39:39;;;;;;;6.35;5.75;;;18.60;99.90;;;;;;5113852;28;20210;-88
2022/11/01 12:42:13;;;;;;;8.27;6.30;;;18.80;99.90;;;;;;5114331;28;20212;-87
2022/11/01 12:44:45;;;;;;;6.63;6.00;;;19.00;99.90;;;;;;5114278;28;20203;-88
2022/11/01 12:47:22;;;;;;;6.30;5.38;;;19.20;99.90;;;;;;5114029;28;20246;-87
2022/11/01 12:49:54;;;;;;;5.28;4.88;;;19.40;99.90;;;;;;5113814;28;20209;-87
2022/11/01 12:52:31;;;;;;;4.97;4.57;;;19.50;99.90;;;;;;5113953;28;20200;-87
2022/11/01 12:55:05;;;;;;;7.18;5.53;;;19.60;99.90;;;;;;5114234;28;20242;-87
2022/11/01 12:57:34;;;;;;;6.07;5.47;;;19.30;99.90;;;;;;5114029;28;20202;-87
2022/11/01 13:00:04;;;;;;;6.35;5.50;;;18.90;99.90;;;;;;5113536;28;20276;-87
2022/11/01 13:02:47;;;;;;;5.03;4.53;;;18.70;99.90;;;;;;5113933;28;20195;-87
2022/11/01 13:05:21;;;;;;;4.82;4.43;;;18.50;99.90;;;;;;5113984;28;20211;-87
2022/11/01 13:08:02;;;;;;;5.82;5.25;;;18.40;99.90;;;;;;5113924;28;20225;-87